Cormoran — 2J1A6 — position and weather

sailwx.info

Track history (hours):
 
Tides and Currents Weather Stations Pressure Air Temp Water Temp Dewpoint Dewpoint Depression Visibility Wind Speed Wind Dir Waves Ship Positions

Cormoran

Last reported at 2018-Jul-02 09:15 UTC. Time now 2018-Jul-22 18:11 UTC.
Position N 38°13' E 013°14'.
Warning: this ship's position is 20 days out of date.

Length 12 m.

Type: Sailing vessel. MMSI: 235116078.

Date/timePositionNaut miles runAvg speedWind from/ knotsBaromVisibWave heightAir tempDewpointWater temp
2018-Jul-02 09:15N 38°13' E 013°14'1 4.5
2018-Jul-02 09:00N 38°12' E 013°16'1 0.7
2018-Jul-02 08:02N 38°12' E 013°16'0 0.0
2018-Jul-02 07:38N 38°12' E 013°16'0 0.0
2018-Jul-02 07:29N 38°12' E 013°16'0 0.0
2018-Jul-02 05:59N 38°12' E 013°16'0 0.0
2018-Jul-02 05:17N 38°12' E 013°16'0 0.0
2018-Jul-02 04:56N 38°12' E 013°16'0 0.0
2018-Jul-02 01:25N 38°12' E 013°16'0 0.0
2018-Jul-02 00:52N 38°12' E 013°16'0 0.0
2018-Jul-02 00:28N 38°12' E 013°16'0 0.0
2018-Jul-01 23:55N 38°12' E 013°16'0 0.0
2018-Jul-01 23:25N 38°12' E 013°16'0 0.0
2018-Jul-01 22:58N 38°12' E 013°16'0 0.0
2018-Jul-01 22:25N 38°12' E 013°16'0 0.0
2018-Jul-01 21:55N 38°12' E 013°16'0 0.0
2018-Jul-01 21:10N 38°12' E 013°16'0 0.0
2018-Jul-01 20:49N 38°12' E 013°16'0 0.0
2018-Jul-01 20:22N 38°12' E 013°16'0 0.0
2018-Jul-01 19:46N 38°12' E 013°16'0 0.0
2018-Jul-01 19:10N 38°12' E 013°16'0 0.0
2018-Jul-01 18:58N 38°12' E 013°16'0 0.0
2018-Jul-01 18:28N 38°12' E 013°16'0 0.0
2018-Jul-01 17:52N 38°12' E 013°16'0 0.0
2018-Jul-01 17:28N 38°12' E 013°16'0 0.0
2018-Jul-01 16:58N 38°12' E 013°16'0 0.1
2018-Jul-01 15:53N 38°12' E 013°16'3 4.7
2018-Jul-01 15:19N 38°13' E 013°19'2 4.1
2018-Jul-01 14:56N 38°12' E 013°20'0 0.0
2018-Jul-01 14:29N 38°12' E 013°20'0 0.0
2018-Jul-01 13:59N 38°12' E 013°20'0 0.0
2018-Jul-01 13:26N 38°12' E 013°20'0 0.0
2018-Jul-01 12:59N 38°12' E 013°20'0 0.0
2018-Jul-01 12:29N 38°12' E 013°20'0 0.0
2018-Jul-01 11:59N 38°12' E 013°20'0 0.0
2018-Jul-01 11:29N 38°12' E 013°20'0 0.0
2018-Jul-01 10:59N 38°12' E 013°20'0 0.0
2018-Jul-01 10:29N 38°12' E 013°20'0 0.0
2018-Jul-01 09:59N 38°12' E 013°20'0 0.0
2018-Jul-01 09:29N 38°12' E 013°20'0 0.0
2018-Jul-01 09:00N 38°12' E 013°20'0 0.0
2018-Jul-01 08:29N 38°12' E 013°20'0 0.0
2018-Jul-01 07:59N 38°12' E 013°20'0 0.0
2018-Jul-01 07:29N 38°12' E 013°20'0 0.0
2018-Jul-01 06:59N 38°12' E 013°20'0 0.0
2018-Jul-01 06:29N 38°12' E 013°20'0 0.0
2018-Jul-01 05:56N 38°12' E 013°20'0 0.0
2018-Jul-01 05:29N 38°12' E 013°20'0 0.0
2018-Jul-01 04:59N 38°12' E 013°20'0 0.0
2018-Jul-01 04:29N 38°12' E 013°20'0 0.0
2018-Jul-01 03:59N 38°12' E 013°20'0 0.0
2018-Jul-01 03:26N 38°12' E 013°20'0 0.0
2018-Jul-01 03:00N 38°12' E 013°20'0 0.0
2018-Jul-01 02:30N 38°12' E 013°20'0 0.0
2018-Jul-01 02:00N 38°12' E 013°20'0 0.0
2018-Jul-01 01:30N 38°12' E 013°20'0 0.0
2018-Jul-01 00:59N 38°12' E 013°20'0 0.0
2018-Jul-01 00:29N 38°12' E 013°20'0 0.0
2018-Jun-30 23:59N 38°12' E 013°20'0 0.0
2018-Jun-30 23:29N 38°12' E 013°20'0 0.0
2018-Jun-30 23:00N 38°12' E 013°20'0 0.0
2018-Jun-30 22:30N 38°12' E 013°20'0 0.0
2018-Jun-30 22:00N 38°12' E 013°20'0 0.0
2018-Jun-30 21:30N 38°12' E 013°20'0 0.0
2018-Jun-30 21:00N 38°12' E 013°20'0 0.0
2018-Jun-30 20:30N 38°12' E 013°20'0 0.0
2018-Jun-30 20:00N 38°12' E 013°20'0 0.0
2018-Jun-30 19:30N 38°12' E 013°20'0 0.0
2018-Jun-30 19:00N 38°12' E 013°20'0 0.0
2018-Jun-30 18:25N 38°12' E 013°20'0 0.0
2018-Jun-30 17:58N 38°12' E 013°20'0 0.0
2018-Jun-30 17:28N 38°12' E 013°20'0 0.0
2018-Jun-30 16:58N 38°12' E 013°20'0 0.0
2018-Jun-30 16:28N 38°12' E 013°20'0 0.0
2018-Jun-30 15:58N 38°12' E 013°20'0 0.0
2018-Jun-30 15:28N 38°12' E 013°20'0 0.0
2018-Jun-30 15:00N 38°12' E 013°20'  
2018-Jun-23 10:14N 38°07' E 013°29'1 5.1
2018-Jun-23 09:57N 38°07' E 013°27'3 5.6
2018-Jun-23 09:30N 38°07' E 013°24'1 0.3
2018-Jun-23 05:15N 38°07' E 013°22'0 0.0
2018-Jun-22 10:16N 38°07' E 013°22'0 0.0
2018-Jun-22 09:58N 38°07' E 013°22'  
Track history (hours):
 
Tides and Currents Weather Stations Pressure Air Temp Water Temp Dewpoint Dewpoint Depression Visibility Wind Speed Wind Dir Waves Ship Positions

Cormoran

Last reported at 2018-Jul-02 09:15 UTC. Time now 2018-Jul-22 18:11 UTC.
Position N 38°13' E 013°14'.
Warning: this ship's position is 20 days out of date.

Length 12 m.

Type: Sailing vessel. MMSI: 235116078.

Date/timePositionNaut miles runAvg speedWind from/ knotsBaromVisibWave heightAir tempDewpointWater temp
2018-Jul-02 09:15N 38°13' E 013°14'1 4.5
2018-Jul-02 09:00N 38°12' E 013°16'1 0.7
2018-Jul-02 08:02N 38°12' E 013°16'0 0.0
2018-Jul-02 07:38N 38°12' E 013°16'0 0.0
2018-Jul-02 07:29N 38°12' E 013°16'0 0.0
2018-Jul-02 05:59N 38°12' E 013°16'0 0.0
2018-Jul-02 05:17N 38°12' E 013°16'0 0.0
2018-Jul-02 04:56N 38°12' E 013°16'0 0.0
2018-Jul-02 01:25N 38°12' E 013°16'0 0.0
2018-Jul-02 00:52N 38°12' E 013°16'0 0.0
2018-Jul-02 00:28N 38°12' E 013°16'0 0.0
2018-Jul-01 23:55N 38°12' E 013°16'0 0.0
2018-Jul-01 23:25N 38°12' E 013°16'0 0.0
2018-Jul-01 22:58N 38°12' E 013°16'0 0.0
2018-Jul-01 22:25N 38°12' E 013°16'0 0.0
2018-Jul-01 21:55N 38°12' E 013°16'0 0.0
2018-Jul-01 21:10N 38°12' E 013°16'0 0.0
2018-Jul-01 20:49N 38°12' E 013°16'0 0.0
2018-Jul-01 20:22N 38°12' E 013°16'0 0.0
2018-Jul-01 19:46N 38°12' E 013°16'0 0.0
2018-Jul-01 19:10N 38°12' E 013°16'0 0.0
2018-Jul-01 18:58N 38°12' E 013°16'0 0.0
2018-Jul-01 18:28N 38°12' E 013°16'0 0.0
2018-Jul-01 17:52N 38°12' E 013°16'0 0.0
2018-Jul-01 17:28N 38°12' E 013°16'0 0.0
2018-Jul-01 16:58N 38°12' E 013°16'0 0.1
2018-Jul-01 15:53N 38°12' E 013°16'3 4.7
2018-Jul-01 15:19N 38°13' E 013°19'2 4.1
2018-Jul-01 14:56N 38°12' E 013°20'0 0.0
2018-Jul-01 14:29N 38°12' E 013°20'0 0.0
2018-Jul-01 13:59N 38°12' E 013°20'0 0.0
2018-Jul-01 13:26N 38°12' E 013°20'0 0.0
2018-Jul-01 12:59N 38°12' E 013°20'0 0.0
2018-Jul-01 12:29N 38°12' E 013°20'0 0.0
2018-Jul-01 11:59N 38°12' E 013°20'0 0.0
2018-Jul-01 11:29N 38°12' E 013°20'0 0.0
2018-Jul-01 10:59N 38°12' E 013°20'0 0.0
2018-Jul-01 10:29N 38°12' E 013°20'0 0.0
2018-Jul-01 09:59N 38°12' E 013°20'0 0.0
2018-Jul-01 09:29N 38°12' E 013°20'0 0.0
2018-Jul-01 09:00N 38°12' E 013°20'0 0.0
2018-Jul-01 08:29N 38°12' E 013°20'0 0.0
2018-Jul-01 07:59N 38°12' E 013°20'0 0.0
2018-Jul-01 07:29N 38°12' E 013°20'0 0.0
2018-Jul-01 06:59N 38°12' E 013°20'0 0.0
2018-Jul-01 06:29N 38°12' E 013°20'0 0.0
2018-Jul-01 05:56N 38°12' E 013°20'0 0.0
2018-Jul-01 05:29N 38°12' E 013°20'0 0.0
2018-Jul-01 04:59N 38°12' E 013°20'0 0.0
2018-Jul-01 04:29N 38°12' E 013°20'0 0.0
2018-Jul-01 03:59N 38°12' E 013°20'0 0.0
2018-Jul-01 03:26N 38°12' E 013°20'0 0.0
2018-Jul-01 03:00N 38°12' E 013°20'0 0.0
2018-Jul-01 02:30N 38°12' E 013°20'0 0.0
2018-Jul-01 02:00N 38°12' E 013°20'0 0.0
2018-Jul-01 01:30N 38°12' E 013°20'0 0.0
2018-Jul-01 00:59N 38°12' E 013°20'0 0.0
2018-Jul-01 00:29N 38°12' E 013°20'0 0.0
2018-Jun-30 23:59N 38°12' E 013°20'0 0.0
2018-Jun-30 23:29N 38°12' E 013°20'0 0.0
2018-Jun-30 23:00N 38°12' E 013°20'0 0.0
2018-Jun-30 22:30N 38°12' E 013°20'0 0.0
2018-Jun-30 22:00N 38°12' E 013°20'0 0.0
2018-Jun-30 21:30N 38°12' E 013°20'0 0.0
2018-Jun-30 21:00N 38°12' E 013°20'0 0.0
2018-Jun-30 20:30N 38°12' E 013°20'0 0.0
2018-Jun-30 20:00N 38°12' E 013°20'0 0.0
2018-Jun-30 19:30N 38°12' E 013°20'0 0.0
2018-Jun-30 19:00N 38°12' E 013°20'0 0.0
2018-Jun-30 18:25N 38°12' E 013°20'0 0.0
2018-Jun-30 17:58N 38°12' E 013°20'0 0.0
2018-Jun-30 17:28N 38°12' E 013°20'0 0.0
2018-Jun-30 16:58N 38°12' E 013°20'0 0.0
2018-Jun-30 16:28N 38°12' E 013°20'0 0.0
2018-Jun-30 15:58N 38°12' E 013°20'0 0.0
2018-Jun-30 15:28N 38°12' E 013°20'0 0.0
2018-Jun-30 15:00N 38°12' E 013°20'  
2018-Jun-23 10:14N 38°07' E 013°29'1 5.1
2018-Jun-23 09:57N 38°07' E 013°27'3 5.6
2018-Jun-23 09:30N 38°07' E 013°24'1 0.3
2018-Jun-23 05:15N 38°07' E 013°22'0 0.0
2018-Jun-22 10:16N 38°07' E 013°22'0 0.0
2018-Jun-22 09:58N 38°07' E 013°22'  

Dump ship's entire track history